createdAt,value
2022-12-14T00:01:56.014Z,8.30
2022-12-14T00:04:24.049Z,9.07
2022-12-14T00:06:52.482Z,9.03
2022-12-14T00:09:20.474Z,8.53
2022-12-14T00:11:51.629Z,11.27
2022-12-14T00:14:19.675Z,10.80
2022-12-14T00:16:48.785Z,10.03
2022-12-14T00:19:17.008Z,9.63
2022-12-14T00:21:45.866Z,9.33
2022-12-14T00:24:14.019Z,10.20
2022-12-14T00:26:42.068Z,7.40
2022-12-14T00:29:11.739Z,10.63
2022-12-14T00:31:39.782Z,9.07
2022-12-14T00:34:07.848Z,8.80
2022-12-14T00:36:37.630Z,8.10
2022-12-14T00:39:05.766Z,9.47
2022-12-14T00:41:33.815Z,6.93
2022-12-14T00:44:01.808Z,9.40
2022-12-14T00:46:31.291Z,7.93
2022-12-14T00:48:59.377Z,8.07
2022-12-14T00:51:27.427Z,8.17
2022-12-14T00:53:55.452Z,9.13
2022-12-14T00:56:23.524Z,7.90
2022-12-14T00:58:52.658Z,8.27
2022-12-14T01:01:21.806Z,8.83
2022-12-14T01:03:51.466Z,7.67
2022-12-14T01:06:21.603Z,7.70
2022-12-14T01:08:50.152Z,7.67
2022-12-14T01:11:18.195Z,7.83
2022-12-14T01:13:49.548Z,6.77
2022-12-14T01:16:18.944Z,6.77
2022-12-14T01:18:47.093Z,7.70
2022-12-14T01:21:18.739Z,6.17
2022-12-14T01:23:47.850Z,7.70
2022-12-14T01:26:17.487Z,6.70
2022-12-14T01:28:46.158Z,5.03
2022-12-14T01:31:16.622Z,6.50
2022-12-14T01:33:45.564Z,7.70
2022-12-14T01:36:16.415Z,6.53
2022-12-14T01:38:44.668Z,8.00
2022-12-14T01:41:24.675Z,5.73
2022-12-14T01:43:54.106Z,8.40
2022-12-14T01:46:29.282Z,6.63
2022-12-14T01:49:01.577Z,6.67
2022-12-14T01:51:32.723Z,5.50
2022-12-14T01:54:03.725Z,6.00
2022-12-14T01:56:35.595Z,6.30
2022-12-14T01:59:07.324Z,7.30
2022-12-14T02:01:35.998Z,6.37
2022-12-14T02:04:05.724Z,7.07
2022-12-14T02:06:39.254Z,6.07
2022-12-14T02:09:11.107Z,6.20
2022-12-14T02:11:45.633Z,6.73
2022-12-14T02:14:13.882Z,5.63
2022-12-14T02:16:42.312Z,6.13
2022-12-14T02:19:10.476Z,6.20
2022-12-14T02:22:09.136Z,8.83
2022-12-14T02:24:55.153Z,6.87
2022-12-14T02:27:49.536Z,8.97
2022-12-14T02:30:20.751Z,5.87
2022-12-14T02:33:07.632Z,7.37
2022-12-14T02:35:50.246Z,6.03
2022-12-14T02:38:34.319Z,6.63
2022-12-14T02:41:11.284Z,5.63
2022-12-14T02:43:50.198Z,7.27
2022-12-14T02:46:25.989Z,6.37
2022-12-14T02:49:00.267Z,6.60
2022-12-14T02:51:40.561Z,7.10
2022-12-14T02:54:14.679Z,6.77
2022-12-14T02:56:49.566Z,5.63
2022-12-14T02:59:19.488Z,6.77
2022-12-14T03:01:50.987Z,6.23
2022-12-14T03:04:20.402Z,7.93
2022-12-14T03:06:58.782Z,6.27
2022-12-14T03:09:30.939Z,9.10
2022-12-14T03:12:03.783Z,5.50
2022-12-14T03:14:35.279Z,6.53
2022-12-14T03:17:19.006Z,5.07
2022-12-14T03:19:51.795Z,6.43
2022-12-14T03:22:24.559Z,7.37
2022-12-14T03:24:56.091Z,8.10
2022-12-14T03:27:28.197Z,8.87
2022-12-14T03:30:00.821Z,5.10
2022-12-14T03:32:34.303Z,7.03
2022-12-14T03:35:05.563Z,6.17
2022-12-14T03:37:39.194Z,7.43
2022-12-14T03:40:10.461Z,5.80
2022-12-14T03:42:44.580Z,9.20
2022-12-14T03:45:21.816Z,6.77
2022-12-14T03:48:00.531Z,8.27
2022-12-14T03:50:35.067Z,5.60
2022-12-14T03:53:08.445Z,7.20
2022-12-14T03:55:39.674Z,6.27
2022-12-14T03:58:25.992Z,6.27
2022-12-14T04:00:58.833Z,7.47
2022-12-14T04:03:38.983Z,7.47
2022-12-14T04:06:13.188Z,7.73
2022-12-14T04:08:48.808Z,8.73
2022-12-14T04:11:43.728Z,6.80
2022-12-14T04:14:35.369Z,8.07
2022-12-14T04:17:26.259Z,6.87
2022-12-14T04:20:01.445Z,6.77
2022-12-14T04:22:33.987Z,7.87
2022-12-14T04:25:29.302Z,7.10
2022-12-14T04:28:00.734Z,7.23
2022-12-14T04:30:29.092Z,7.67
2022-12-14T04:33:21.263Z,7.00
2022-12-14T04:35:52.930Z,9.30
2022-12-14T04:38:27.379Z,10.23
2022-12-14T04:40:58.816Z,8.67
2022-12-14T04:43:31.064Z,9.77
2022-12-14T04:46:05.109Z,9.20
2022-12-14T04:48:38.171Z,7.43
2022-12-14T04:51:11.995Z,7.53
2022-12-14T04:53:41.614Z,7.60
2022-12-14T04:56:13.642Z,7.10
2022-12-14T04:58:42.396Z,6.77
2022-12-14T05:01:24.624Z,6.80
2022-12-14T05:04:02.332Z,4.70
2022-12-14T05:06:38.644Z,4.87
2022-12-14T05:09:14.000Z,6.70
2022-12-14T05:11:54.689Z,8.77
2022-12-14T05:14:30.639Z,7.43
2022-12-14T05:17:03.421Z,5.93
2022-12-14T05:19:34.860Z,6.33
2022-12-14T05:22:07.924Z,5.67
2022-12-14T05:24:36.000Z,5.93
2022-12-14T05:27:04.030Z,10.30
2022-12-14T05:29:32.152Z,4.93
2022-12-14T05:32:00.798Z,5.07
2022-12-14T05:34:28.910Z,7.00
2022-12-14T05:36:56.984Z,6.27
2022-12-14T05:39:26.385Z,7.03
2022-12-14T05:41:54.524Z,7.67
2022-12-14T05:44:22.618Z,5.77
2022-12-14T05:46:50.619Z,6.63
2022-12-14T05:49:18.623Z,10.47
2022-12-14T05:51:46.849Z,8.80
2022-12-14T05:54:15.708Z,7.20
2022-12-14T05:56:45.067Z,8.30
2022-12-14T05:59:15.608Z,7.83
2022-12-14T06:01:44.254Z,5.23
2022-12-14T06:04:12.624Z,8.30
2022-12-14T06:06:40.855Z,7.00
2022-12-14T06:09:11.030Z,7.43
2022-12-14T06:11:40.688Z,8.87
2022-12-14T06:14:10.835Z,6.50
2022-12-14T06:16:41.673Z,8.77
2022-12-14T06:19:10.575Z,6.87
2022-12-14T06:21:41.199Z,8.57
2022-12-14T06:24:11.691Z,5.07
2022-12-14T06:26:41.596Z,10.13
2022-12-14T06:29:16.521Z,8.43
2022-12-14T06:31:44.804Z,7.83
2022-12-14T06:34:18.890Z,14.03
2022-12-14T06:36:47.932Z,8.03
2022-12-14T06:39:17.574Z,12.03
2022-12-14T06:41:49.637Z,4.37
2022-12-14T06:44:19.288Z,8.53
2022-12-14T06:46:47.603Z,8.43
2022-12-14T06:49:17.376Z,8.83
2022-12-14T06:51:45.532Z,5.63
2022-12-14T06:54:14.427Z,10.33
2022-12-14T06:56:42.876Z,9.37
2022-12-14T06:59:11.318Z,13.43
2022-12-14T07:01:41.674Z,4.87
2022-12-14T07:04:09.873Z,9.90
2022-12-14T07:06:40.436Z,9.57
2022-12-14T07:09:13.026Z,8.67
2022-12-14T07:11:41.443Z,8.80
2022-12-14T07:14:12.419Z,10.37
2022-12-14T07:16:45.214Z,12.20
2022-12-14T07:19:16.290Z,7.67
2022-12-14T07:21:44.360Z,10.83
2022-12-14T07:24:12.407Z,5.67
2022-12-14T07:26:40.404Z,11.33
2022-12-14T07:29:09.219Z,9.67
2022-12-14T07:31:37.222Z,6.00
2022-12-14T07:34:06.745Z,9.47
2022-12-14T07:36:34.766Z,7.30
2022-12-14T07:39:02.804Z,12.97
2022-12-14T07:41:32.329Z,12.13
2022-12-14T07:44:01.498Z,9.67
2022-12-14T07:46:31.910Z,14.27
2022-12-14T07:49:01.050Z,7.00
2022-12-14T07:51:32.419Z,6.67
2022-12-14T07:54:01.584Z,7.43
2022-12-14T07:56:31.470Z,7.97
2022-12-14T07:59:01.479Z,9.27
2022-12-14T08:01:31.630Z,8.40
2022-12-14T08:04:01.632Z,7.77
2022-12-14T08:06:36.361Z,7.17
2022-12-14T08:09:05.223Z,9.93
2022-12-14T08:11:33.283Z,8.67
2022-12-14T08:14:03.001Z,10.27
2022-12-14T08:16:31.595Z,9.33
2022-12-14T08:19:00.589Z,13.20
2022-12-14T08:21:28.988Z,11.87
2022-12-14T08:23:59.192Z,12.53
2022-12-14T08:26:34.943Z,11.80
2022-12-14T08:29:04.477Z,9.10
2022-12-14T08:31:33.435Z,8.00
2022-12-14T08:34:03.017Z,10.47
2022-12-14T08:36:34.015Z,7.07
2022-12-14T08:39:05.905Z,10.00
2022-12-14T08:41:34.012Z,7.80
2022-12-14T08:44:03.304Z,12.93
2022-12-14T08:46:34.097Z,8.73
2022-12-14T08:49:02.313Z,20.80
2022-12-14T08:51:31.187Z,6.83
2022-12-14T08:53:59.267Z,11.60
2022-12-14T08:56:29.539Z,35.70
2022-12-14T08:58:58.158Z,11.83
2022-12-14T09:01:32.708Z,14.73
2022-12-14T09:04:03.781Z,11.50
2022-12-14T09:06:33.799Z,10.00
2022-12-14T09:09:01.898Z,11.37
2022-12-14T09:11:31.362Z,16.67
2022-12-14T09:13:59.489Z,15.27
2022-12-14T09:16:27.789Z,23.27
2022-12-14T09:18:56.113Z,16.53
2022-12-14T09:21:24.627Z,12.80
2022-12-14T09:23:58.924Z,9.40
2022-12-14T09:26:28.075Z,9.67
2022-12-14T09:28:58.328Z,9.80
2022-12-14T09:31:28.178Z,10.00
2022-12-14T09:33:56.878Z,8.57
2022-12-14T09:36:27.274Z,9.40
2022-12-14T09:38:56.559Z,11.50
2022-12-14T09:41:37.534Z,12.83
2022-12-14T09:44:18.794Z,12.20
2022-12-14T09:46:57.137Z,10.00
2022-12-14T09:49:29.026Z,14.20
2022-12-14T09:52:00.118Z,20.77
2022-12-14T09:54:30.516Z,17.83
2022-12-14T09:57:02.421Z,20.73
2022-12-14T09:59:34.931Z,13.73
2022-12-14T10:02:36.474Z,13.23
2022-12-14T10:05:25.552Z,12.87
2022-12-14T10:08:05.036Z,12.80
2022-12-14T10:10:40.555Z,14.43
2022-12-14T10:13:18.686Z,13.17
2022-12-14T10:15:55.785Z,10.23
2022-12-14T10:19:01.094Z,11.10
2022-12-14T10:21:42.264Z,10.77
2022-12-14T10:24:16.145Z,9.53
2022-12-14T10:26:49.585Z,14.87
2022-12-14T10:29:28.316Z,10.87
2022-12-14T10:32:06.368Z,10.43
2022-12-14T10:34:35.695Z,8.47
2022-12-14T10:37:12.034Z,12.83
2022-12-14T10:39:49.764Z,8.80
2022-12-14T10:42:24.768Z,10.37
2022-12-14T10:45:31.503Z,11.87
2022-12-14T10:47:54.642Z,9.77
2022-12-14T10:50:28.577Z,12.17
2022-12-14T10:52:58.265Z,11.47
2022-12-14T10:55:33.637Z,10.47
2022-12-14T10:58:01.855Z,9.40
2022-12-14T11:00:30.000Z,15.17
2022-12-14T11:03:01.009Z,10.63
2022-12-14T11:05:37.443Z,10.63
2022-12-14T11:08:07.712Z,17.67
2022-12-14T11:10:39.222Z,27.43
2022-12-14T11:13:15.483Z,11.43
2022-12-14T11:15:45.341Z,9.10
2022-12-14T11:18:31.179Z,9.37
2022-12-14T11:21:01.519Z,13.30
2022-12-14T11:23:31.386Z,12.93
2022-12-14T11:26:01.627Z,8.83
2022-12-14T11:28:37.026Z,9.23
2022-12-14T11:31:08.399Z,11.20
2022-12-14T11:33:49.986Z,11.47
2022-12-14T11:36:25.429Z,12.53
2022-12-14T11:38:57.289Z,12.53
2022-12-14T11:41:25.585Z,11.87
2022-12-14T11:44:06.947Z,11.30
2022-12-14T11:46:46.760Z,12.70
2022-12-14T11:49:27.830Z,8.77
2022-12-14T11:52:01.969Z,10.97
2022-12-14T11:54:30.618Z,8.20
2022-12-14T11:57:03.336Z,11.90
2022-12-14T11:59:38.457Z,10.27
2022-12-14T12:02:23.975Z,14.23
2022-12-14T12:04:59.080Z,8.53
2022-12-14T12:07:33.476Z,77.83
2022-12-14T12:10:14.861Z,28.73
2022-12-14T12:12:54.110Z,8.77
2022-12-14T12:15:26.685Z,12.27
2022-12-14T12:17:58.970Z,9.07
2022-12-14T12:20:36.285Z,11.83
2022-12-14T12:23:12.756Z,11.53
2022-12-14T12:25:43.305Z,9.30
2022-12-14T12:28:18.275Z,11.10
2022-12-14T12:30:50.304Z,12.03
2022-12-14T12:33:32.274Z,10.73
2022-12-14T12:36:05.250Z,11.17
2022-12-14T12:38:49.775Z,12.13
2022-12-14T12:41:30.801Z,8.77
2022-12-14T12:44:05.578Z,13.07
2022-12-14T12:46:48.509Z,9.30
2022-12-14T12:49:27.644Z,9.07
2022-12-14T12:52:02.282Z,14.77
2022-12-14T12:54:35.499Z,11.60
2022-12-14T12:57:06.474Z,13.20
2022-12-14T12:59:39.294Z,10.37
2022-12-14T13:02:21.235Z,8.73
2022-12-14T13:04:53.064Z,12.20
2022-12-14T13:07:33.093Z,15.20
2022-12-14T13:10:06.079Z,11.27
2022-12-14T13:12:37.757Z,20.33
2022-12-14T13:15:14.863Z,18.73
2022-12-14T13:17:46.738Z,14.27
2022-12-14T13:20:22.123Z,15.20
2022-12-14T13:22:52.249Z,10.30
2022-12-14T13:25:26.159Z,10.90
2022-12-14T13:28:08.412Z,9.23
2022-12-14T13:30:49.574Z,10.37
2022-12-14T13:33:37.852Z,28.00
2022-12-14T13:36:37.994Z,17.42
2022-12-14T13:39:39.261Z,16.17
2022-12-14T13:42:09.383Z,15.13
2022-12-14T13:44:54.631Z,13.47
2022-12-14T13:47:26.751Z,11.83
2022-12-14T13:50:35.469Z,12.67
2022-12-14T13:52:48.840Z,11.40
2022-12-14T13:55:28.535Z,19.43
2022-12-14T13:58:15.124Z,12.93
2022-12-14T14:00:58.428Z,13.93
2022-12-14T14:03:42.709Z,14.10
2022-12-14T14:06:18.702Z,14.17
2022-12-14T14:08:48.939Z,11.17
2022-12-14T14:11:55.108Z,10.97
2022-12-14T14:14:37.522Z,14.20
2022-12-14T14:17:13.303Z,12.02
2022-12-14T14:19:43.374Z,10.27
2022-12-14T14:22:23.827Z,20.03
2022-12-14T14:24:58.451Z,12.10
2022-12-14T14:27:31.009Z,9.80
2022-12-14T14:29:59.237Z,11.17
2022-12-14T14:32:40.622Z,13.63
2022-12-14T14:35:21.440Z,16.67
2022-12-14T14:37:58.205Z,24.13
2022-12-14T14:40:58.319Z,17.80
2022-12-14T14:43:28.531Z,18.17
2022-12-14T14:45:59.847Z,15.07
2022-12-14T14:48:34.759Z,24.57
2022-12-14T14:51:09.887Z,17.57
2022-12-14T14:53:39.279Z,14.90
2022-12-14T14:56:14.156Z,13.43
2022-12-14T14:58:44.135Z,16.63
2022-12-14T15:01:30.727Z,15.43
2022-12-14T15:04:03.150Z,21.10
2022-12-14T15:06:33.681Z,16.97
2022-12-14T15:09:06.445Z,16.77
2022-12-14T15:11:43.607Z,17.60
2022-12-14T15:14:27.537Z,14.90
2022-12-14T15:16:55.568Z,14.23
2022-12-14T15:19:26.164Z,11.93
2022-12-14T15:21:56.731Z,13.17
2022-12-14T15:24:25.928Z,15.77
2022-12-14T15:26:54.868Z,11.13
2022-12-14T15:29:28.746Z,15.60
2022-12-14T15:32:00.571Z,15.67
2022-12-14T15:34:29.382Z,14.77
2022-12-14T15:36:58.551Z,16.30
2022-12-14T15:39:33.581Z,15.43
2022-12-14T15:42:10.334Z,13.60
2022-12-14T15:44:43.781Z,15.77
2022-12-14T15:47:32.616Z,14.20
2022-12-14T15:50:16.700Z,16.47
2022-12-14T15:52:46.598Z,17.33
2022-12-14T15:55:27.934Z,15.10
2022-12-14T15:57:56.149Z,17.80
2022-12-14T16:00:26.205Z,12.97
2022-12-14T16:02:54.775Z,17.03
2022-12-14T16:05:23.877Z,20.97
2022-12-14T16:07:55.057Z,16.97
2022-12-14T16:10:26.324Z,15.03
2022-12-14T16:12:58.823Z,14.73
2022-12-14T16:15:29.967Z,17.47
2022-12-14T16:18:02.573Z,15.33
2022-12-14T16:20:32.901Z,18.20
2022-12-14T16:23:05.870Z,18.37
2022-12-14T16:25:36.473Z,17.50
2022-12-14T16:28:22.245Z,15.03
2022-12-14T16:30:59.277Z,17.07
2022-12-14T16:33:29.395Z,16.03
2022-12-14T16:36:08.110Z,14.30
2022-12-14T16:38:42.251Z,13.53
2022-12-14T16:41:11.463Z,14.20
2022-12-14T16:43:41.837Z,17.83
2022-12-14T16:46:14.788Z,16.20
2022-12-14T16:48:46.086Z,19.47
2022-12-14T16:51:58.075Z,17.60
2022-12-14T16:54:25.455Z,13.80
2022-12-14T16:56:58.327Z,14.73
2022-12-14T16:59:31.200Z,14.07
2022-12-14T17:02:00.909Z,21.40
2022-12-14T17:04:35.383Z,16.23
2022-12-14T17:07:03.969Z,18.70
2022-12-14T17:09:35.224Z,13.83
2022-12-14T17:12:12.283Z,19.53
2022-12-14T17:14:47.574Z,17.90
2022-12-14T17:17:22.239Z,15.60
2022-12-14T17:19:50.348Z,14.43
2022-12-14T17:22:23.844Z,15.90
2022-12-14T17:24:53.185Z,15.33
2022-12-14T17:27:22.762Z,28.97
2022-12-14T17:29:52.473Z,19.37
2022-12-14T17:32:23.421Z,22.37
2022-12-14T17:34:51.413Z,35.70
2022-12-14T17:37:20.973Z,19.00
2022-12-14T17:39:50.127Z,17.60
2022-12-14T17:42:21.322Z,14.70
2022-12-14T17:44:54.940Z,16.43
2022-12-14T17:47:25.379Z,15.70
2022-12-14T17:49:53.587Z,19.37
2022-12-14T17:52:25.299Z,17.33
2022-12-14T17:54:53.460Z,18.93
2022-12-14T17:57:23.883Z,18.87
2022-12-14T18:00:13.014Z,18.17
2022-12-14T18:02:45.402Z,19.63
2022-12-14T18:05:19.139Z,20.03
2022-12-14T18:07:49.636Z,18.50
2022-12-14T18:10:22.436Z,19.07
2022-12-14T18:12:50.826Z,19.70
2022-12-14T18:15:22.042Z,18.90
2022-12-14T18:17:51.608Z,22.07
2022-12-14T18:20:20.406Z,21.77
2022-12-14T18:22:50.017Z,18.90
2022-12-14T18:25:28.925Z,17.13
2022-12-14T18:27:57.309Z,19.93
2022-12-14T18:30:25.612Z,19.40
2022-12-14T18:32:55.422Z,18.03
2022-12-14T18:35:25.353Z,16.73
2022-12-14T18:37:53.724Z,20.33
2022-12-14T18:40:24.027Z,20.23
2022-12-14T18:42:53.525Z,17.63
2022-12-14T18:45:24.376Z,21.10
2022-12-14T18:47:54.576Z,20.43
2022-12-14T18:50:24.255Z,19.57
2022-12-14T18:52:52.304Z,18.47
2022-12-14T18:55:22.756Z,16.83
2022-12-14T18:57:53.383Z,18.30
2022-12-14T19:00:23.397Z,17.77
2022-12-14T19:02:52.149Z,19.03
2022-12-14T19:05:28.340Z,20.90
2022-12-14T19:07:58.672Z,25.77
2022-12-14T19:10:30.411Z,22.23
2022-12-14T19:12:58.723Z,19.73
2022-12-14T19:15:28.980Z,30.30
2022-12-14T19:17:57.751Z,33.27
2022-12-14T19:20:28.906Z,51.77
2022-12-14T19:22:57.372Z,76.53
2022-12-14T19:25:26.248Z,61.17
2022-12-14T19:28:30.288Z,38.63
2022-12-14T19:30:44.734Z,24.23
2022-12-14T19:33:13.220Z,23.17
2022-12-14T19:35:43.519Z,25.67
2022-12-14T19:38:15.019Z,31.47
2022-12-14T19:40:46.114Z,20.37
2022-12-14T19:43:14.510Z,16.47
2022-12-14T19:45:42.564Z,15.57
2022-12-14T19:48:13.297Z,21.73
2022-12-14T19:50:43.795Z,23.97
2022-12-14T19:53:23.181Z,14.73
2022-12-14T19:55:54.133Z,21.93
2022-12-14T19:58:24.845Z,22.63
2022-12-14T20:00:53.112Z,21.97
2022-12-14T20:03:21.853Z,21.10
2022-12-14T20:05:53.102Z,34.73
2022-12-14T20:08:21.353Z,27.30
2022-12-14T20:10:49.441Z,27.33
2022-12-14T20:13:17.495Z,29.00
2022-12-14T20:15:49.509Z,27.27
2022-12-14T20:18:17.627Z,27.63
2022-12-14T20:20:46.098Z,27.70
2022-12-14T20:23:20.517Z,27.93
2022-12-14T20:25:49.064Z,25.53
2022-12-14T20:28:17.292Z,25.60
2022-12-14T20:30:46.508Z,27.23
2022-12-14T20:33:15.312Z,27.03
2022-12-14T20:35:43.351Z,26.90
2022-12-14T20:38:11.456Z,24.90
2022-12-14T20:40:40.960Z,29.97
2022-12-14T20:43:09.050Z,27.40
2022-12-14T20:45:39.200Z,24.57
2022-12-14T20:48:08.509Z,23.83
2022-12-14T20:50:36.901Z,21.93
2022-12-14T20:53:05.105Z,24.13
2022-12-14T20:55:35.203Z,22.30
2022-12-14T20:58:04.704Z,24.50
2022-12-14T21:00:33.036Z,27.50
2022-12-14T21:03:01.337Z,25.83
2022-12-14T21:05:29.689Z,24.93
2022-12-14T21:07:57.784Z,23.30
2022-12-14T21:10:25.866Z,25.77
2022-12-14T21:12:54.008Z,32.13
2022-12-14T21:15:23.457Z,25.03
2022-12-14T21:17:51.597Z,28.80
2022-12-14T21:20:20.162Z,25.03
2022-12-14T21:22:48.439Z,21.37
2022-12-14T21:25:16.575Z,30.90
2022-12-14T21:27:44.692Z,24.87
2022-12-14T21:30:13.572Z,19.07
2022-12-14T21:32:43.401Z,19.63
2022-12-14T21:35:13.144Z,20.33
2022-12-14T21:37:41.175Z,23.50
2022-12-14T21:40:30.869Z,22.20
2022-12-14T21:42:57.966Z,23.43
2022-12-14T21:45:26.134Z,23.47
2022-12-14T21:47:55.803Z,21.43
2022-12-14T21:50:23.935Z,22.53
2022-12-14T21:52:51.986Z,21.20
2022-12-14T21:55:20.209Z,25.50
2022-12-14T21:58:05.644Z,22.33
2022-12-14T22:00:33.719Z,17.70
2022-12-14T22:03:03.270Z,15.80
2022-12-14T22:05:31.349Z,19.13
2022-12-14T22:07:59.529Z,20.50
2022-12-14T22:10:27.582Z,21.87
2022-12-14T22:12:55.590Z,17.67
2022-12-14T22:15:23.608Z,20.17
2022-12-14T22:17:51.948Z,19.63
2022-12-14T22:20:21.432Z,20.20
2022-12-14T22:22:49.456Z,23.03
2022-12-14T22:25:17.676Z,18.63
2022-12-14T22:27:50.193Z,18.03
2022-12-14T22:30:18.915Z,20.90
2022-12-14T22:32:47.771Z,20.27
2022-12-14T22:35:15.978Z,20.67
2022-12-14T22:37:45.272Z,18.40
2022-12-14T22:40:14.133Z,19.93
2022-12-14T22:42:42.113Z,16.93
2022-12-14T22:45:10.955Z,18.93
2022-12-14T22:47:38.961Z,17.37
2022-12-14T22:50:08.202Z,19.63
2022-12-14T22:52:36.267Z,18.73
2022-12-14T22:55:06.439Z,16.60
2022-12-14T22:57:41.381Z,17.83
2022-12-14T23:00:13.214Z,17.70
2022-12-14T23:02:45.368Z,17.07
2022-12-14T23:05:15.988Z,25.97
2022-12-14T23:07:44.019Z,25.43
2022-12-14T23:10:30.672Z,18.90
2022-12-14T23:13:16.137Z,18.33
2022-12-14T23:16:01.763Z,19.97
2022-12-14T23:18:47.344Z,19.93
2022-12-14T23:21:32.761Z,23.23
2022-12-14T23:24:18.652Z,20.33
2022-12-14T23:27:09.279Z,22.80
2022-12-14T23:29:55.686Z,20.63
2022-12-14T23:32:41.230Z,19.23
2022-12-14T23:35:27.191Z,20.73
2022-12-14T23:38:12.516Z,22.33
2022-12-14T23:40:58.156Z,20.83
2022-12-14T23:43:44.852Z,24.20
2022-12-14T23:46:30.477Z,22.17
2022-12-14T23:49:16.445Z,27.37
2022-12-14T23:52:02.401Z,22.97
2022-12-14T23:54:48.332Z,26.30
2022-12-14T23:57:33.714Z,25.07
